Terminal Aerodrome Forecast
Issued by NWS Austin/San Antonio, TX

Home | Current Version | Previous Version | Text Only | Print | Product List | Glossary On
Versions: 1 2 3 4 5 6 7 8 9 10 11 12 13 14 15 16 17 18 19 20 21 22 23 24 25 26
000
FTUS44 KEWX 291425 AAA
TAFSAT
TAF AMD
KSAT 291425Z 2914/3018 29004KT P6SM SCT150
     FM291700 15012KT P6SM SCT040
     FM300300 16007KT P6SM OVC012
     FM301600 16008KT P6SM BKN025=

USA.gov is the U.S. government's official web portal to all federal, state and local government web resources and services.